Pagrindinis puslapis
METAR-TAF:

METAR-TAF

Oro uostai :

Karačis, Pakistanas

platuma: 24-54N, ilguma: 067-08E, Aukštis: 21 m

Dabartinis oras

Ataskaita buvo paskelbta 37 minutes, ne 22:00 UTC
Vėjas 6 kt iš Pietvakarių
Temperatūra 30°C
Drėgmė 70%
Slėgis 1001 hPa
Matomumas: 6000 m
Su prošvaistėmis ne aukštis 2000 ft

METAR: OPKC 052200Z 23006KT 6000 BKN020 30/24 Q1001 NOSIG

Laikas: 03:37 (22:37 UTC)

Prognozė

Ataskaita buvo paskelbta 6 valandos ir 37 minutes, ne 16:00 UTC
Prognozė galioja nuo 05 metu 18 UTC su 06 metu 24 UTC
Vėjas 10 kt iš Vakarų/Pietvakarių
Matomumas: 6000 m
Išsisklaidę debesys ne aukštis 3000 ft
Laikinai
nuo 06 metu 00 UTC su 06 metu 04 UTC
Vėjas 5 kt iš Pietvakarių
Matomumas: 4000 m
Išsisklaidę debesys ne aukštis 3000 ft
migla
Nuo UTC
Vėjas 5 kt iš Pietvakarių su gūsio iki 15 kt
Matomumas: 6000 m

TAF: OPKC 051600Z 0518/0624 24010KT 6000 SCT030 TEMPO 0600/0604 23005KT 4000 HZ SCT030 FM 060600Z 23005G15KT 6000 NSC

Orai ataskaitas ir orų prognozės (METAR, TAF).

turimą stotys yra geltonos ir raudonos taškus žemėlapyje.

Perkelti pele per norėdami pamatyti stoties vardą.

Tada spustelėkite, norėdami matyti oro stebėjimo ir prognozės.

Norėdami pakeisti žemėlapį: spustelėkite ant žalios mygtukų su juodo kryžiaus žemyn,; žalią mygtuką su brūkšneliu, jei norite nutolinti; arba žalių rodyklių gretimoms žemėlapius.


METAR-TAF: